createdAt,value
2022-10-27T04:02:01.033Z,38.03
2022-10-27T04:07:39.240Z,37.33
2022-10-27T04:10:43.772Z,35.20
2022-10-27T04:13:46.857Z,35.13
2022-10-27T04:16:51.337Z,34.90
2022-10-27T04:19:53.387Z,33.35
2022-10-27T04:22:56.717Z,33.85
2022-10-27T04:25:59.039Z,35.35
2022-10-27T04:29:01.430Z,35.97
2022-10-27T04:32:03.522Z,33.13
2022-10-27T04:35:07.369Z,32.90
2022-10-27T04:38:09.400Z,33.05
2022-10-27T04:41:11.683Z,36.30
2022-10-27T04:44:13.732Z,33.47
2022-10-27T04:47:16.034Z,32.33
2022-10-27T04:50:18.609Z,34.67
2022-10-27T04:53:20.890Z,31.98
2022-10-27T04:56:22.974Z,35.65
2022-10-27T04:59:25.315Z,33.45
2022-10-27T05:02:28.716Z,32.17
2022-10-27T05:05:31.553Z,37.50
2022-10-27T05:08:34.574Z,32.90
2022-10-27T05:11:36.857Z,39.38
2022-10-27T05:14:38.902Z,38.88
2022-10-27T05:17:41.260Z,34.63
2022-10-27T05:20:43.302Z,33.70
2022-10-27T05:23:47.833Z,35.17
2022-10-27T05:26:50.024Z,30.17
2022-10-27T05:29:52.314Z,29.98
2022-10-27T05:32:54.374Z,27.05
2022-10-27T05:35:56.721Z,31.05
2022-10-27T05:38:58.759Z,34.15
2022-10-27T05:42:01.063Z,34.63
2022-10-27T05:45:03.362Z,33.15
2022-10-27T05:48:07.940Z,30.60
2022-10-27T05:51:10.078Z,35.20
2022-10-27T05:54:12.430Z,35.10
2022-10-27T05:57:14.453Z,35.38
2022-10-27T06:00:18.718Z,33.33
2022-10-27T06:03:24.483Z,32.80
2022-10-27T06:06:26.504Z,33.70
2022-10-27T06:09:28.894Z,39.17
2022-10-27T06:12:30.919Z,36.50
2022-10-27T06:15:34.191Z,33.10
2022-10-27T06:18:36.345Z,34.63
2022-10-27T06:21:38.625Z,35.53
2022-10-27T06:24:40.662Z,35.00
2022-10-27T06:27:43.099Z,39.22
2022-10-27T06:30:45.215Z,29.40
2022-10-27T06:33:47.499Z,29.55
2022-10-27T06:36:49.533Z,30.60
2022-10-27T06:39:56.575Z,38.22
2022-10-27T06:43:06.646Z,44.30
2022-10-27T06:46:10.331Z,33.22
2022-10-27T06:49:14.244Z,35.58
2022-10-27T06:52:19.311Z,33.13
2022-10-27T06:55:21.348Z,35.30
2022-10-27T06:58:24.601Z,38.38
2022-10-27T07:01:26.916Z,37.50
2022-10-27T07:04:29.656Z,40.38
2022-10-27T07:07:31.798Z,33.65
2022-10-27T07:10:34.113Z,33.28
2022-10-27T07:13:36.503Z,35.78
2022-10-27T07:16:38.801Z,33.08
2022-10-27T07:19:40.839Z,38.65
2022-10-27T07:22:43.109Z,36.05
2022-10-27T07:25:48.684Z,35.00
2022-10-27T07:28:51.028Z,36.22
2022-10-27T07:31:53.236Z,34.05
2022-10-27T07:34:55.619Z,35.15
2022-10-27T07:37:57.678Z,37.00
2022-10-27T07:41:00.044Z,35.00
2022-10-27T07:44:02.409Z,36.10
2022-10-27T07:47:04.785Z,34.17
2022-10-27T07:50:08.606Z,34.50
2022-10-27T07:53:11.548Z,34.70
2022-10-27T07:56:13.590Z,31.98
2022-10-27T07:59:16.024Z,32.00
2022-10-27T08:02:18.119Z,36.72
2022-10-27T08:05:21.213Z,31.12
2022-10-27T08:08:23.296Z,35.90
2022-10-27T08:11:25.620Z,34.45
2022-10-27T08:14:28.138Z,38.17
2022-10-27T08:17:32.276Z,33.70
2022-10-27T08:20:40.015Z,35.65
2022-10-27T08:23:42.302Z,33.97
2022-10-27T08:26:44.337Z,31.15
2022-10-27T08:29:48.838Z,31.80
2022-10-27T08:32:55.252Z,31.12
2022-10-27T08:36:01.698Z,35.03
2022-10-27T08:39:03.798Z,29.90
2022-10-27T08:42:23.408Z,31.55
2022-10-27T08:45:30.848Z,30.65
2022-10-27T08:48:35.751Z,36.28
2022-10-27T08:51:40.185Z,31.98
2022-10-27T08:54:49.139Z,37.30
2022-10-27T08:58:13.330Z,31.73
2022-10-27T09:01:31.706Z,30.80
2022-10-27T09:05:16.476Z,30.35
2022-10-27T09:08:37.369Z,32.53
2022-10-27T09:11:57.024Z,34.92
2022-10-27T09:15:27.844Z,34.30
2022-10-27T09:19:02.733Z,38.10
2022-10-27T09:22:08.206Z,34.80
2022-10-27T09:25:17.889Z,40.72
2022-10-27T09:28:25.094Z,31.27
2022-10-27T09:31:36.813Z,31.48
2022-10-27T09:34:52.481Z,33.35
2022-10-27T09:37:56.513Z,47.92
2022-10-27T09:40:58.897Z,39.15
2022-10-27T09:44:03.735Z,33.75
2022-10-27T09:47:06.047Z,35.78
2022-10-27T09:50:45.366Z,34.63
2022-10-27T09:53:52.986Z,32.75
2022-10-27T09:56:56.596Z,39.67
2022-10-27T10:00:01.753Z,40.30
2022-10-27T10:03:21.039Z,42.53
2022-10-27T10:06:33.557Z,37.25
2022-10-27T10:09:42.246Z,36.78
2022-10-27T10:12:45.167Z,38.33
2022-10-27T10:15:48.370Z,36.85
2022-10-27T10:19:02.506Z,38.45
2022-10-27T10:22:04.628Z,45.00
2022-10-27T10:25:22.778Z,42.40
2022-10-27T10:28:35.910Z,37.20
2022-10-27T10:31:38.332Z,45.17
2022-10-27T10:34:44.869Z,37.28
2022-10-27T10:37:47.934Z,37.65
2022-10-27T10:41:13.799Z,43.92
2022-10-27T10:44:17.291Z,38.80
2022-10-27T10:47:27.657Z,40.45
2022-10-27T10:50:31.746Z,38.67
2022-10-27T10:53:38.591Z,43.35
2022-10-27T10:56:41.959Z,46.05
2022-10-27T10:59:44.940Z,41.53
2022-10-27T11:03:15.804Z,40.95
2022-10-27T11:06:21.542Z,44.97
2022-10-27T11:09:31.891Z,38.97
2022-10-27T11:12:47.308Z,38.95
2022-10-27T11:15:57.216Z,38.42
2022-10-27T11:19:02.200Z,41.13
2022-10-27T11:22:11.307Z,42.95
2022-10-27T11:25:23.359Z,44.70
2022-10-27T11:28:59.352Z,39.30
2022-10-27T11:32:16.764Z,38.40
2022-10-27T11:35:42.114Z,38.63
2022-10-27T11:39:02.229Z,39.38
2022-10-27T11:42:17.778Z,38.65
2022-10-27T11:45:27.149Z,43.92
2022-10-27T11:48:40.940Z,44.13
2022-10-27T11:51:52.660Z,41.22
2022-10-27T11:54:55.224Z,41.72
2022-10-27T11:58:11.197Z,36.38
2022-10-27T12:01:33.728Z,42.40
2022-10-27T12:04:48.346Z,40.38
2022-10-27T12:08:01.514Z,36.42
2022-10-27T12:11:18.214Z,39.45
2022-10-27T12:14:32.090Z,39.13
2022-10-27T12:17:53.418Z,42.25
2022-10-27T12:20:58.906Z,38.60
2022-10-27T12:24:43.814Z,42.22
2022-10-27T12:27:49.560Z,44.67
2022-10-27T12:30:54.489Z,39.42
2022-10-27T12:34:03.462Z,41.08
2022-10-27T12:37:15.606Z,38.20
2022-10-27T12:40:29.305Z,40.67
2022-10-27T12:43:40.486Z,36.40
2022-10-27T12:46:56.597Z,40.60
2022-10-27T12:50:18.144Z,40.97
2022-10-27T12:53:35.975Z,38.58
2022-10-27T12:56:44.602Z,42.70
2022-10-27T12:59:57.544Z,36.58
2022-10-27T13:03:21.641Z,42.83
2022-10-27T13:06:42.471Z,40.17
2022-10-27T13:10:06.754Z,41.05
2022-10-27T13:13:30.864Z,45.08
2022-10-27T13:16:51.301Z,50.08
2022-10-27T13:20:14.014Z,42.90
2022-10-27T13:23:30.505Z,39.70
2022-10-27T13:26:54.756Z,41.47
2022-10-27T13:30:13.530Z,42.30
2022-10-27T13:33:36.205Z,40.97
2022-10-27T13:36:38.556Z,42.67
2022-10-27T13:39:45.020Z,44.85
2022-10-27T13:42:50.018Z,40.58
2022-10-27T13:45:54.515Z,39.28
2022-10-27T13:48:56.813Z,44.75
2022-10-27T13:52:17.215Z,45.72
2022-10-27T13:55:28.449Z,41.35
2022-10-27T13:58:53.929Z,42.72
2022-10-27T14:02:02.927Z,44.47
2022-10-27T14:05:21.687Z,43.33
2022-10-27T14:08:27.321Z,46.40
2022-10-27T14:11:31.557Z,48.60
2022-10-27T14:14:35.373Z,47.88
2022-10-27T14:17:42.554Z,45.97
2022-10-27T14:20:44.835Z,50.40
2022-10-27T14:23:47.925Z,46.90
2022-10-27T14:26:57.690Z,46.88
2022-10-27T14:30:33.992Z,45.00
2022-10-27T14:33:36.062Z,48.22
2022-10-27T14:36:38.653Z,40.85
2022-10-27T14:39:41.229Z,45.65
2022-10-27T14:42:45.754Z,42.15
2022-10-27T14:45:56.673Z,41.67
2022-10-27T14:49:10.279Z,40.55
2022-10-27T14:52:50.224Z,41.55
2022-10-27T14:56:06.929Z,41.37
2022-10-27T14:59:21.758Z,38.88
2022-10-27T15:02:25.913Z,40.40
2022-10-27T15:05:46.198Z,45.55
2022-10-27T15:08:50.718Z,40.17
2022-10-27T15:11:52.833Z,41.35
2022-10-27T15:14:56.439Z,38.33
2022-10-27T15:18:02.757Z,41.20
2022-10-27T15:21:11.310Z,38.90
2022-10-27T15:24:20.137Z,41.30
2022-10-27T15:27:22.858Z,36.13
2022-10-27T15:30:24.959Z,35.95
2022-10-27T15:33:27.285Z,32.95
2022-10-27T15:36:29.372Z,37.13
2022-10-27T15:39:31.652Z,33.78
2022-10-27T15:42:37.047Z,32.30
2022-10-27T15:45:45.423Z,33.42
2022-10-27T15:49:14.758Z,30.02
2022-10-27T15:52:22.489Z,34.05
